sensor_id;sensor_type;location;lat;lon;timestamp;pressure;altitude;pressure_sealevel;temperature;humidity
57024;BME280;42916;54.346;18.562;2023-09-19T00:00:21;99441.20;;;20.08;79.64
57024;BME280;42916;54.346;18.562;2023-09-19T00:03:09;99444.55;;;20.09;79.58
57024;BME280;42916;54.346;18.562;2023-09-19T00:05:37;99446.47;;;20.10;79.58
57024;BME280;42916;54.346;18.562;2023-09-19T00:08:05;99448.96;;;20.11;79.67
57024;BME280;42916;54.346;18.562;2023-09-19T00:10:33;99446.80;;;20.12;79.57
57024;BME280;42916;54.346;18.562;2023-09-19T00:13:03;99445.97;;;20.14;79.65
57024;BME280;42916;54.346;18.562;2023-09-19T00:15:38;99450.02;;;20.15;79.56
57024;BME280;42916;54.346;18.562;2023-09-19T00:18:06;99447.58;;;20.15;79.50
57024;BME280;42916;54.346;18.562;2023-09-19T00:20:36;99446.41;;;20.15;79.53
57024;BME280;42916;54.346;18.562;2023-09-19T00:23:04;99444.89;;;20.15;79.51
57024;BME280;42916;54.346;18.562;2023-09-19T00:25:31;99442.20;;;20.14;79.57
57024;BME280;42916;54.346;18.562;2023-09-19T00:27:58;99443.09;;;20.15;79.53
57024;BME280;42916;54.346;18.562;2023-09-19T00:30:25;99440.75;;;20.16;79.53
57024;BME280;42916;54.346;18.562;2023-09-19T00:32:52;99445.58;;;20.16;79.70
57024;BME280;42916;54.346;18.562;2023-09-19T00:35:19;99447.70;;;20.16;79.73
57024;BME280;42916;54.346;18.562;2023-09-19T00:37:46;99445.60;;;20.17;79.74
57024;BME280;42916;54.346;18.562;2023-09-19T00:40:13;99445.24;;;20.18;79.74
57024;BME280;42916;54.346;18.562;2023-09-19T00:42:43;99446.14;;;20.19;79.76
57024;BME280;42916;54.346;18.562;2023-09-19T00:45:12;99440.88;;;20.18;79.85
57024;BME280;42916;54.346;18.562;2023-09-19T00:47:41;99435.25;;;20.17;79.84
57024;BME280;42916;54.346;18.562;2023-09-19T00:50:09;99433.19;;;20.16;79.82
57024;BME280;42916;54.346;18.562;2023-09-19T00:52:38;99433.88;;;20.16;79.91
57024;BME280;42916;54.346;18.562;2023-09-19T00:55:07;99434.92;;;20.16;80.02
57024;BME280;42916;54.346;18.562;2023-09-19T00:57:36;99428.09;;;20.17;80.13
57024;BME280;42916;54.346;18.562;2023-09-19T01:00:06;99432.42;;;20.19;80.34
57024;BME280;42916;54.346;18.562;2023-09-19T01:02:35;99428.61;;;20.21;80.59
57024;BME280;42916;54.346;18.562;2023-09-19T01:05:01;99427.86;;;20.22;80.69
57024;BME280;42916;54.346;18.562;2023-09-19T01:07:32;99421.48;;;20.23;80.96
57024;BME280;42916;54.346;18.562;2023-09-19T01:10:06;99420.30;;;20.23;80.96
57024;BME280;42916;54.346;18.562;2023-09-19T01:21:04;99404.13;;;20.20;81.62
57024;BME280;42916;54.346;18.562;2023-09-19T01:27:02;99403.02;;;20.15;82.18
57024;BME280;42916;54.346;18.562;2023-09-19T01:29:38;99417.51;;;20.14;82.65
57024;BME280;42916;54.346;18.562;2023-09-19T01:32:06;99419.70;;;20.13;82.99
57024;BME280;42916;54.346;18.562;2023-09-19T01:34:55;99416.23;;;20.07;83.31
57024;BME280;42916;54.346;18.562;2023-09-19T01:37:30;99417.19;;;20.00;83.72
57024;BME280;42916;54.346;18.562;2023-09-19T01:40:09;99416.71;;;19.93;84.12
57024;BME280;42916;54.346;18.562;2023-09-19T01:48:05;99413.61;;;19.81;85.29
57024;BME280;42916;54.346;18.562;2023-09-19T01:53:25;99407.65;;;19.79;85.79
57024;BME280;42916;54.346;18.562;2023-09-19T01:55:55;99412.64;;;19.78;86.02
57024;BME280;42916;54.346;18.562;2023-09-19T01:58:29;99412.59;;;19.74;86.37
57024;BME280;42916;54.346;18.562;2023-09-19T02:00:58;99408.42;;;19.71;86.58
57024;BME280;42916;54.346;18.562;2023-09-19T02:03:26;99407.52;;;19.70;86.81
57024;BME280;42916;54.346;18.562;2023-09-19T02:05:55;99408.12;;;19.69;87.24
57024;BME280;42916;54.346;18.562;2023-09-19T02:08:22;99402.05;;;19.66;87.58
57024;BME280;42916;54.346;18.562;2023-09-19T02:10:52;99399.14;;;19.67;87.67
57024;BME280;42916;54.346;18.562;2023-09-19T02:13:21;99396.20;;;19.68;88.24
57024;BME280;42916;54.346;18.562;2023-09-19T02:15:48;99393.56;;;19.67;88.50
57024;BME280;42916;54.346;18.562;2023-09-19T02:18:15;99391.90;;;19.67;88.18
57024;BME280;42916;54.346;18.562;2023-09-19T02:20:43;99389.68;;;19.66;88.91
57024;BME280;42916;54.346;18.562;2023-09-19T02:23:10;99389.56;;;19.65;88.72
57024;BME280;42916;54.346;18.562;2023-09-19T02:25:37;99388.23;;;19.63;88.89
57024;BME280;42916;54.346;18.562;2023-09-19T02:28:08;99381.20;;;19.61;89.56
57024;BME280;42916;54.346;18.562;2023-09-19T02:30:35;99381.08;;;19.57;89.16
57024;BME280;42916;54.346;18.562;2023-09-19T02:33:03;99380.27;;;19.56;89.43
57024;BME280;42916;54.346;18.562;2023-09-19T02:35:30;99388.77;;;19.54;89.29
57024;BME280;42916;54.346;18.562;2023-09-19T02:38:02;99381.05;;;19.51;89.13
57024;BME280;42916;54.346;18.562;2023-09-19T02:40:32;99380.80;;;19.49;89.17
57024;BME280;42916;54.346;18.562;2023-09-19T02:43:02;99378.06;;;19.47;89.47
57024;BME280;42916;54.346;18.562;2023-09-19T02:45:29;99377.72;;;19.45;89.12
57024;BME280;42916;54.346;18.562;2023-09-19T02:47:57;99369.73;;;19.42;89.34
57024;BME280;42916;54.346;18.562;2023-09-19T02:50:24;99363.79;;;19.38;89.13
57024;BME280;42916;54.346;18.562;2023-09-19T02:52:51;99361.52;;;19.36;89.04
57024;BME280;42916;54.346;18.562;2023-09-19T02:55:19;99361.30;;;19.34;89.14
57024;BME280;42916;54.346;18.562;2023-09-19T02:57:53;99355.25;;;19.31;89.36
57024;BME280;42916;54.346;18.562;2023-09-19T03:00:23;99353.41;;;19.28;89.64
57024;BME280;42916;54.346;18.562;2023-09-19T03:02:53;99345.83;;;19.23;89.87
57024;BME280;42916;54.346;18.562;2023-09-19T03:05:22;99336.48;;;19.19;90.11
57024;BME280;42916;54.346;18.562;2023-09-19T03:07:50;99338.21;;;19.14;90.19
57024;BME280;42916;54.346;18.562;2023-09-19T03:10:20;99340.33;;;19.12;90.34
57024;BME280;42916;54.346;18.562;2023-09-19T03:12:48;99337.05;;;19.10;90.74
57024;BME280;42916;54.346;18.562;2023-09-19T03:15:15;99336.38;;;19.09;90.63
57024;BME280;42916;54.346;18.562;2023-09-19T03:17:47;99332.16;;;19.10;90.83
57024;BME280;42916;54.346;18.562;2023-09-19T03:20:16;99323.33;;;19.10;91.02
57024;BME280;42916;54.346;18.562;2023-09-19T03:22:44;99326.93;;;19.07;91.38
57024;BME280;42916;54.346;18.562;2023-09-19T03:25:11;99324.49;;;19.01;91.44
57024;BME280;42916;54.346;18.562;2023-09-19T03:27:39;99320.79;;;18.96;91.69
57024;BME280;42916;54.346;18.562;2023-09-19T03:30:07;99319.00;;;18.92;91.92
57024;BME280;42916;54.346;18.562;2023-09-19T03:32:49;99322.61;;;18.90;92.23
57024;BME280;42916;54.346;18.562;2023-09-19T03:35:17;99321.87;;;18.87;92.42
57024;BME280;42916;54.346;18.562;2023-09-19T03:37:44;99319.73;;;18.85;92.75
57024;BME280;42916;54.346;18.562;2023-09-19T03:40:11;99320.75;;;18.85;93.19
57024;BME280;42916;54.346;18.562;2023-09-19T03:42:41;99318.02;;;18.77;93.71
57024;BME280;42916;54.346;18.562;2023-09-19T03:45:10;99319.75;;;18.71;93.96
57024;BME280;42916;54.346;18.562;2023-09-19T03:47:47;99319.91;;;18.69;94.40
57024;BME280;42916;54.346;18.562;2023-09-19T03:50:15;99316.76;;;18.65;94.64
57024;BME280;42916;54.346;18.562;2023-09-19T03:52:44;99315.29;;;18.57;95.26
57024;BME280;42916;54.346;18.562;2023-09-19T03:55:11;99312.66;;;18.50;95.80
57024;BME280;42916;54.346;18.562;2023-09-19T03:57:39;99300.91;;;18.48;96.05
57024;BME280;42916;54.346;18.562;2023-09-19T04:00:06;99303.36;;;18.45;96.42
57024;BME280;42916;54.346;18.562;2023-09-19T04:02:41;99304.20;;;18.47;96.93
57024;BME280;42916;54.346;18.562;2023-09-19T04:05:08;99304.21;;;18.47;96.98
57024;BME280;42916;54.346;18.562;2023-09-19T04:07:36;99297.86;;;18.48;97.46
57024;BME280;42916;54.346;18.562;2023-09-19T04:10:03;99292.41;;;18.51;97.93
57024;BME280;42916;54.346;18.562;2023-09-19T04:12:30;99289.08;;;18.53;98.14
57024;BME280;42916;54.346;18.562;2023-09-19T04:14:56;99292.16;;;18.53;98.36
57024;BME280;42916;54.346;18.562;2023-09-19T04:17:23;99300.67;;;18.49;98.48
57024;BME280;42916;54.346;18.562;2023-09-19T04:19:50;99303.54;;;18.42;98.80
57024;BME280;42916;54.346;18.562;2023-09-19T04:22:17;99301.67;;;18.34;99.23
57024;BME280;42916;54.346;18.562;2023-09-19T04:24:44;99301.15;;;18.27;99.54
57024;BME280;42916;54.346;18.562;2023-09-19T04:27:11;99304.95;;;18.19;99.90
57024;BME280;42916;54.346;18.562;2023-09-19T04:29:41;99308.78;;;18.11;100.00
57024;BME280;42916;54.346;18.562;2023-09-19T04:32:10;99311.61;;;18.03;100.00
57024;BME280;42916;54.346;18.562;2023-09-19T04:34:39;99313.77;;;17.98;100.00
57024;BME280;42916;54.346;18.562;2023-09-19T04:37:06;99313.76;;;17.94;100.00
57024;BME280;42916;54.346;18.562;2023-09-19T04:39:33;99310.38;;;17.92;100.00
57024;BME280;42916;54.346;18.562;2023-09-19T04:42:00;99313.86;;;17.93;100.00
57024;BME280;42916;54.346;18.562;2023-09-19T04:44:27;99316.05;;;17.94;100.00
57024;BME280;42916;54.346;18.562;2023-09-19T04:46:54;99316.64;;;17.97;100.00
57024;BME280;42916;54.346;18.562;2023-09-19T04:49:21;99319.36;;;17.98;100.00
57024;BME280;42916;54.346;18.562;2023-09-19T04:51:47;99319.12;;;17.98;100.00
57024;BME280;42916;54.346;18.562;2023-09-19T04:54:14;99322.48;;;17.99;100.00
57024;BME280;42916;54.346;18.562;2023-09-19T04:56:41;99328.52;;;18.01;100.00
57024;BME280;42916;54.346;18.562;2023-09-19T04:59:08;99336.10;;;18.01;100.00
57024;BME280;42916;54.346;18.562;2023-09-19T05:01:37;99337.58;;;18.03;100.00
57024;BME280;42916;54.346;18.562;2023-09-19T05:04:04;99342.50;;;18.04;100.00
57024;BME280;42916;54.346;18.562;2023-09-19T05:06:31;99338.77;;;18.05;100.00
57024;BME280;42916;54.346;18.562;2023-09-19T05:09:01;99337.42;;;18.08;100.00
57024;BME280;42916;54.346;18.562;2023-09-19T05:11:31;99344.44;;;18.10;100.00
57024;BME280;42916;54.346;18.562;2023-09-19T05:13:58;99343.02;;;18.12;100.00
57024;BME280;42916;54.346;18.562;2023-09-19T05:16:28;99332.02;;;18.12;100.00
57024;BME280;42916;54.346;18.562;2023-09-19T05:18:56;99328.40;;;18.12;100.00
57024;BME280;42916;54.346;18.562;2023-09-19T05:21:24;99329.95;;;18.12;100.00
57024;BME280;42916;54.346;18.562;2023-09-19T05:23:51;99330.35;;;18.12;100.00
57024;BME280;42916;54.346;18.562;2023-09-19T05:26:19;99323.90;;;18.12;100.00
57024;BME280;42916;54.346;18.562;2023-09-19T05:28:46;99313.70;;;18.10;100.00
57024;BME280;42916;54.346;18.562;2023-09-19T05:31:14;99314.28;;;18.07;100.00
57024;BME280;42916;54.346;18.562;2023-09-19T05:33:42;99310.44;;;18.05;100.00
57024;BME280;42916;54.346;18.562;2023-09-19T05:36:09;99318.25;;;18.05;100.00
57024;BME280;42916;54.346;18.562;2023-09-19T05:38:38;99326.34;;;18.08;100.00
57024;BME280;42916;54.346;18.562;2023-09-19T05:41:08;99338.11;;;18.10;100.00
57024;BME280;42916;54.346;18.562;2023-09-19T05:43:40;99336.42;;;18.14;100.00
57024;BME280;42916;54.346;18.562;2023-09-19T05:46:07;99335.60;;;18.17;100.00
57024;BME280;42916;54.346;18.562;2023-09-19T05:48:34;99338.38;;;18.19;100.00
57024;BME280;42916;54.346;18.562;2023-09-19T05:51:01;99340.34;;;18.25;100.00
57024;BME280;42916;54.346;18.562;2023-09-19T05:53:28;99343.02;;;18.32;100.00
57024;BME280;42916;54.346;18.562;2023-09-19T05:55:55;99344.33;;;18.37;100.00
57024;BME280;42916;54.346;18.562;2023-09-19T05:58:22;99342.02;;;18.42;100.00
57024;BME280;42916;54.346;18.562;2023-09-19T06:00:49;99343.50;;;18.48;100.00
57024;BME280;42916;54.346;18.562;2023-09-19T06:03:16;99350.45;;;18.53;100.00
57024;BME280;42916;54.346;18.562;2023-09-19T06:05:45;99353.43;;;18.57;100.00
57024;BME280;42916;54.346;18.562;2023-09-19T06:08:16;99363.42;;;18.59;100.00
57024;BME280;42916;54.346;18.562;2023-09-19T06:10:43;99359.80;;;18.58;100.00
57024;BME280;42916;54.346;18.562;2023-09-19T06:13:09;99355.36;;;18.59;100.00
57024;BME280;42916;54.346;18.562;2023-09-19T06:15:37;99344.20;;;18.62;100.00
57024;BME280;42916;54.346;18.562;2023-09-19T06:18:04;99352.10;;;18.67;100.00
57024;BME280;42916;54.346;18.562;2023-09-19T06:20:31;99354.59;;;18.71;100.00
57024;BME280;42916;54.346;18.562;2023-09-19T06:22:59;99353.52;;;18.73;100.00
57024;BME280;42916;54.346;18.562;2023-09-19T06:25:28;99355.81;;;18.77;100.00
57024;BME280;42916;54.346;18.562;2023-09-19T06:27:55;99364.97;;;18.80;100.00
57024;BME280;42916;54.346;18.562;2023-09-19T06:30:23;99363.52;;;18.83;100.00
57024;BME280;42916;54.346;18.562;2023-09-19T06:32:58;99366.96;;;18.85;100.00
57024;BME280;42916;54.346;18.562;2023-09-19T06:35:26;99369.15;;;18.88;100.00
57024;BME280;42916;54.346;18.562;2023-09-19T06:37:53;99378.41;;;18.96;100.00
57024;BME280;42916;54.346;18.562;2023-09-19T06:40:20;99374.96;;;19.07;100.00
57024;BME280;42916;54.346;18.562;2023-09-19T06:42:50;99376.25;;;19.19;100.00
57024;BME280;42916;54.346;18.562;2023-09-19T06:45:17;99370.33;;;19.29;100.00
57024;BME280;42916;54.346;18.562;2023-09-19T06:47:45;99367.14;;;19.33;100.00
57024;BME280;42916;54.346;18.562;2023-09-19T06:50:20;99369.57;;;19.35;100.00
57024;BME280;42916;54.346;18.562;2023-09-19T06:52:55;99374.36;;;19.36;100.00
57024;BME280;42916;54.346;18.562;2023-09-19T06:55:23;99378.08;;;19.32;100.00
57024;BME280;42916;54.346;18.562;2023-09-19T06:57:51;99381.88;;;19.33;100.00
57024;BME280;42916;54.346;18.562;2023-09-19T07:00:20;99382.25;;;19.34;100.00
57024;BME280;42916;54.346;18.562;2023-09-19T07:03:01;99382.98;;;19.35;100.00
57024;BME280;42916;54.346;18.562;2023-09-19T07:05:31;99380.48;;;19.36;100.00
57024;BME280;42916;54.346;18.562;2023-09-19T07:08:01;99380.91;;;19.39;100.00
57024;BME280;42916;54.346;18.562;2023-09-19T07:10:28;99382.34;;;19.39;100.00
57024;BME280;42916;54.346;18.562;2023-09-19T07:15:24;99388.41;;;19.44;100.00
57024;BME280;42916;54.346;18.562;2023-09-19T07:17:54;99382.49;;;19.48;100.00
57024;BME280;42916;54.346;18.562;2023-09-19T07:20:24;99382.45;;;19.56;100.00
57024;BME280;42916;54.346;18.562;2023-09-19T07:22:58;99379.79;;;19.68;100.00
57024;BME280;42916;54.346;18.562;2023-09-19T07:25:28;99386.86;;;19.80;100.00
57024;BME280;42916;54.346;18.562;2023-09-19T07:27:56;99386.29;;;19.91;100.00
57024;BME280;42916;54.346;18.562;2023-09-19T07:30:26;99387.83;;;20.00;100.00
57024;BME280;42916;54.346;18.562;2023-09-19T07:32:53;99390.89;;;20.03;100.00
57024;BME280;42916;54.346;18.562;2023-09-19T07:35:20;99385.05;;;20.06;100.00
57024;BME280;42916;54.346;18.562;2023-09-19T07:37:48;99385.39;;;20.09;100.00
57024;BME280;42916;54.346;18.562;2023-09-19T07:40:16;99382.86;;;20.11;100.00
57024;BME280;42916;54.346;18.562;2023-09-19T07:42:42;99388.53;;;20.13;99.92
57024;BME280;42916;54.346;18.562;2023-09-19T07:45:12;99391.42;;;20.12;99.69
57024;BME280;42916;54.346;18.562;2023-09-19T07:47:48;99393.92;;;20.09;99.03
57024;BME280;42916;54.346;18.562;2023-09-19T07:50:19;99396.33;;;20.05;98.82
57024;BME280;42916;54.346;18.562;2023-09-19T07:52:47;99399.77;;;20.05;98.84
57024;BME280;42916;54.346;18.562;2023-09-19T07:55:14;99401.92;;;20.03;98.75
57024;BME280;42916;54.346;18.562;2023-09-19T07:57:46;99402.42;;;20.04;98.49
57024;BME280;42916;54.346;18.562;2023-09-19T08:00:16;99398.98;;;19.96;97.86
57024;BME280;42916;54.346;18.562;2023-09-19T08:02:43;99406.04;;;19.90;97.97
57024;BME280;42916;54.346;18.562;2023-09-19T08:05:11;99405.05;;;19.86;98.11
57024;BME280;42916;54.346;18.562;2023-09-19T08:07:40;99410.91;;;19.80;97.96
57024;BME280;42916;54.346;18.562;2023-09-19T08:10:08;99409.98;;;19.83;98.42
57024;BME280;42916;54.346;18.562;2023-09-19T08:12:40;99410.66;;;19.91;98.72
57024;BME280;42916;54.346;18.562;2023-09-19T08:15:14;99402.42;;;19.97;98.31
57024;BME280;42916;54.346;18.562;2023-09-19T08:17:42;99406.13;;;20.04;98.44
57024;BME280;42916;54.346;18.562;2023-09-19T08:20:10;99407.36;;;20.18;98.27
57024;BME280;42916;54.346;18.562;2023-09-19T08:22:53;99411.45;;;20.32;97.80
57024;BME280;42916;54.346;18.562;2023-09-19T08:25:21;99415.31;;;20.46;97.52
57024;BME280;42916;54.346;18.562;2023-09-19T08:27:48;99422.45;;;20.60;97.49
57024;BME280;42916;54.346;18.562;2023-09-19T08:30:20;99422.88;;;20.75;96.18
57024;BME280;42916;54.346;18.562;2023-09-19T08:32:51;99421.42;;;20.90;95.65
57024;BME280;42916;54.346;18.562;2023-09-19T08:35:17;99426.04;;;20.94;93.60
57024;BME280;42916;54.346;18.562;2023-09-19T08:37:46;99430.79;;;20.89;92.07
57024;BME280;42916;54.346;18.562;2023-09-19T08:40:13;99429.43;;;20.83;92.33
57024;BME280;42916;54.346;18.562;2023-09-19T08:42:56;99437.04;;;20.87;92.45
57024;BME280;42916;54.346;18.562;2023-09-19T08:45:24;99436.09;;;20.82;91.06
57024;BME280;42916;54.346;18.562;2023-09-19T08:48:10;99438.27;;;20.80;91.40
57024;BME280;42916;54.346;18.562;2023-09-19T08:51:07;99431.14;;;20.87;91.96
57024;BME280;42916;54.346;18.562;2023-09-19T08:56:09;99442.28;;;20.95;89.83
57024;BME280;42916;54.346;18.562;2023-09-19T08:58:45;99441.44;;;21.01;89.80
57024;BME280;42916;54.346;18.562;2023-09-19T09:01:17;99447.64;;;21.05;88.64
57024;BME280;42916;54.346;18.562;2023-09-19T09:03:52;99454.46;;;21.12;88.29
57024;BME280;42916;54.346;18.562;2023-09-19T09:06:20;99456.98;;;21.14;87.48
57024;BME280;42916;54.346;18.562;2023-09-19T09:08:49;99457.77;;;21.16;87.53
57024;BME280;42916;54.346;18.562;2023-09-19T09:11:16;99459.97;;;21.27;86.80
57024;BME280;42916;54.346;18.562;2023-09-19T09:13:47;99457.30;;;21.33;85.83
57024;BME280;42916;54.346;18.562;2023-09-19T09:16:14;99456.44;;;21.44;85.86
57024;BME280;42916;54.346;18.562;2023-09-19T09:18:46;99458.43;;;21.47;83.64
57024;BME280;42916;54.346;18.562;2023-09-19T09:21:13;99461.06;;;21.42;83.46
57024;BME280;42916;54.346;18.562;2023-09-19T09:23:42;99465.11;;;21.43;84.01
57024;BME280;42916;54.346;18.562;2023-09-19T09:26:09;99466.94;;;21.43;81.66
57024;BME280;42916;54.346;18.562;2023-09-19T09:28:44;99461.89;;;21.41;81.89
57024;BME280;42916;54.346;18.562;2023-09-19T09:31:31;99473.81;;;21.54;82.24
57024;BME280;42916;54.346;18.562;2023-09-19T09:33:58;99472.95;;;21.62;80.81
57024;BME280;42916;54.346;18.562;2023-09-19T09:36:36;99473.07;;;21.67;81.11
57024;BME280;42916;54.346;18.562;2023-09-19T09:39:03;99473.06;;;21.69;80.90
57024;BME280;42916;54.346;18.562;2023-09-19T09:41:42;99473.59;;;21.60;79.84
57024;BME280;42916;54.346;18.562;2023-09-19T09:44:17;99476.39;;;21.47;80.18
57024;BME280;42916;54.346;18.562;2023-09-19T09:46:48;99481.52;;;21.37;79.93
57024;BME280;42916;54.346;18.562;2023-09-19T09:49:27;99477.89;;;21.26;79.77
57024;BME280;42916;54.346;18.562;2023-09-19T09:52:05;99482.87;;;21.16;78.13
57024;BME280;42916;54.346;18.562;2023-09-19T09:54:35;99483.63;;;21.19;78.11
57024;BME280;42916;54.346;18.562;2023-09-19T09:57:09;99479.05;;;21.31;78.90
57024;BME280;42916;54.346;18.562;2023-09-19T09:59:53;99482.04;;;21.54;79.11
57024;BME280;42916;54.346;18.562;2023-09-19T10:02:35;99480.66;;;21.72;78.83
57024;BME280;42916;54.346;18.562;2023-09-19T10:05:18;99480.91;;;21.81;78.09
57024;BME280;42916;54.346;18.562;2023-09-19T10:07:55;99489.02;;;21.83;76.73
57024;BME280;42916;54.346;18.562;2023-09-19T10:10:37;99499.07;;;21.66;74.73
57024;BME280;42916;54.346;18.562;2023-09-19T10:13:12;99497.02;;;21.50;75.88
57024;BME280;42916;54.346;18.562;2023-09-19T10:15:48;99502.28;;;21.41;75.41
57024;BME280;42916;54.346;18.562;2023-09-19T10:18:25;99506.04;;;21.30;75.78
57024;BME280;42916;54.346;18.562;2023-09-19T10:20:56;99510.53;;;21.21;74.55
57024;BME280;42916;54.346;18.562;2023-09-19T10:23:24;99517.88;;;21.19;75.75
57024;BME280;42916;54.346;18.562;2023-09-19T10:25:53;99514.14;;;21.31;75.96
57024;BME280;42916;54.346;18.562;2023-09-19T10:28:21;99510.59;;;21.44;76.36
57024;BME280;42916;54.346;18.562;2023-09-19T10:30:52;99526.27;;;21.58;75.06
57024;BME280;42916;54.346;18.562;2023-09-19T10:33:23;99529.44;;;21.75;74.35
57024;BME280;42916;54.346;18.562;2023-09-19T10:35:53;99525.67;;;21.81;73.39
57024;BME280;42916;54.346;18.562;2023-09-19T10:38:24;99522.15;;;21.80;72.42
57024;BME280;42916;54.346;18.562;2023-09-19T10:40:55;99517.11;;;21.72;72.17
57024;BME280;42916;54.346;18.562;2023-09-19T10:43:30;99511.63;;;21.63;71.39
57024;BME280;42916;54.346;18.562;2023-09-19T10:46:02;99508.85;;;21.68;72.42
57024;BME280;42916;54.346;18.562;2023-09-19T10:48:32;99504.39;;;21.86;72.35
57024;BME280;42916;54.346;18.562;2023-09-19T10:51:22;99507.19;;;22.00;71.06
57024;BME280;42916;54.346;18.562;2023-09-19T10:53:53;99508.56;;;22.09;66.41
57024;BME280;42916;54.346;18.562;2023-09-19T10:56:26;99515.78;;;22.16;65.48
57024;BME280;42916;54.346;18.562;2023-09-19T10:59:08;99514.31;;;22.32;64.09
57024;BME280;42916;54.346;18.562;2023-09-19T11:01:47;99519.43;;;22.58;64.90
57024;BME280;42916;54.346;18.562;2023-09-19T11:04:27;99515.45;;;22.77;64.43
57024;BME280;42916;54.346;18.562;2023-09-19T11:07:15;99515.88;;;22.81;63.81
57024;BME280;42916;54.346;18.562;2023-09-19T11:14:58;99531.73;;;22.72;62.19
57024;BME280;42916;54.346;18.562;2023-09-19T11:17:34;99540.98;;;22.62;61.53
57024;BME280;42916;54.346;18.562;2023-09-19T11:30:40;99541.33;;;22.60;60.17
57024;BME280;42916;54.346;18.562;2023-09-19T11:33:17;99539.21;;;22.61;60.18
57024;BME280;42916;54.346;18.562;2023-09-19T11:36:10;99545.05;;;22.60;59.94
57024;BME280;42916;54.346;18.562;2023-09-19T11:46:31;99537.91;;;22.47;59.45
57024;BME280;42916;54.346;18.562;2023-09-19T11:49:07;99542.77;;;22.41;59.21
57024;BME280;42916;54.346;18.562;2023-09-19T11:51:42;99544.79;;;22.34;60.18
57024;BME280;42916;54.346;18.562;2023-09-19T11:54:12;99557.17;;;22.22;59.52
57024;BME280;42916;54.346;18.562;2023-09-19T11:56:45;99559.37;;;22.12;60.22
57024;BME280;42916;54.346;18.562;2023-09-19T11:59:20;99561.17;;;22.12;61.04
57024;BME280;42916;54.346;18.562;2023-09-19T12:01:52;99558.45;;;22.20;60.99
57024;BME280;42916;54.346;18.562;2023-09-19T12:04:35;99564.34;;;22.24;60.94
57024;BME280;42916;54.346;18.562;2023-09-19T12:07:09;99570.09;;;22.30;59.87
57024;BME280;42916;54.346;18.562;2023-09-19T12:09:43;99569.02;;;22.32;59.64
57024;BME280;42916;54.346;18.562;2023-09-19T12:12:11;99567.63;;;22.39;59.49
57024;BME280;42916;54.346;18.562;2023-09-19T12:14:50;99574.27;;;22.41;56.91
57024;BME280;42916;54.346;18.562;2023-09-19T12:17:17;99576.56;;;22.30;56.07
57024;BME280;42916;54.346;18.562;2023-09-19T12:19:56;99580.02;;;22.15;55.58
57024;BME280;42916;54.346;18.562;2023-09-19T12:22:23;99576.75;;;22.06;55.90
57024;BME280;42916;54.346;18.562;2023-09-19T12:24:51;99583.66;;;21.98;55.85
57024;BME280;42916;54.346;18.562;2023-09-19T12:27:21;99584.16;;;21.94;56.70
57024;BME280;42916;54.346;18.562;2023-09-19T12:29:49;99589.89;;;22.03;56.51
57024;BME280;42916;54.346;18.562;2023-09-19T12:32:16;99593.36;;;22.08;57.31
57024;BME280;42916;54.346;18.562;2023-09-19T12:34:52;99595.48;;;22.05;55.88
57024;BME280;42916;54.346;18.562;2023-09-19T12:37:21;99592.86;;;22.01;56.47
57024;BME280;42916;54.346;18.562;2023-09-19T12:39:50;99594.27;;;22.10;56.27
57024;BME280;42916;54.346;18.562;2023-09-19T12:42:24;99598.58;;;22.13;57.64
57024;BME280;42916;54.346;18.562;2023-09-19T12:44:52;99593.48;;;22.41;58.51
57024;BME280;42916;54.346;18.562;2023-09-19T12:47:24;99602.33;;;22.74;58.59
57024;BME280;42916;54.346;18.562;2023-09-19T12:50:14;99609.39;;;22.92;58.21
57024;BME280;42916;54.346;18.562;2023-09-19T12:52:46;99610.21;;;22.72;56.75
57024;BME280;42916;54.346;18.562;2023-09-19T12:55:28;99619.19;;;22.31;56.78
57024;BME280;42916;54.346;18.562;2023-09-19T12:58:13;99609.43;;;22.06;58.20
57024;BME280;42916;54.346;18.562;2023-09-19T13:00:43;99615.56;;;22.29;58.39
57024;BME280;42916;54.346;18.562;2023-09-19T13:05:53;99612.84;;;23.22;58.50
57024;BME280;42916;54.346;18.562;2023-09-19T13:08:38;99609.96;;;23.52;55.55
57024;BME280;42916;54.346;18.562;2023-09-19T13:11:13;99614.06;;;23.69;52.54
57024;BME280;42916;54.346;18.562;2023-09-19T13:13:49;99609.77;;;23.58;51.39
57024;BME280;42916;54.346;18.562;2023-09-19T13:16:21;99606.69;;;23.98;53.37
57024;BME280;42916;54.346;18.562;2023-09-19T13:18:52;99608.79;;;24.52;51.21
57024;BME280;42916;54.346;18.562;2023-09-19T13:21:32;99608.91;;;24.71;49.53
57024;BME280;42916;54.346;18.562;2023-09-19T13:24:20;99615.44;;;25.15;48.06
57024;BME280;42916;54.346;18.562;2023-09-19T13:26:47;99607.13;;;25.03;46.17
57024;BME280;42916;54.346;18.562;2023-09-19T13:29:14;99605.33;;;24.75;47.09
57024;BME280;42916;54.346;18.562;2023-09-19T13:31:51;99610.63;;;24.74;47.24
57024;BME280;42916;54.346;18.562;2023-09-19T13:34:19;99608.05;;;24.94;47.75
57024;BME280;42916;54.346;18.562;2023-09-19T13:36:46;99616.31;;;25.34;46.32
57024;BME280;42916;54.346;18.562;2023-09-19T13:39:17;99622.00;;;25.26;45.12
57024;BME280;42916;54.346;18.562;2023-09-19T13:41:44;99618.79;;;25.00;44.96
57024;BME280;42916;54.346;18.562;2023-09-19T13:44:13;99626.42;;;25.00;44.72
57024;BME280;42916;54.346;18.562;2023-09-19T13:46:40;99626.79;;;25.00;43.97
57024;BME280;42916;54.346;18.562;2023-09-19T13:49:11;99627.23;;;24.53;43.04
57024;BME280;42916;54.346;18.562;2023-09-19T13:51:38;99624.32;;;23.91;43.93
57024;BME280;42916;54.346;18.562;2023-09-19T13:54:05;99623.30;;;23.49;45.04
57024;BME280;42916;54.346;18.562;2023-09-19T13:56:32;99623.91;;;23.18;45.51